Westbend, Kentucky
Current Conditions -  °F | °C
As of 12:55 PM on Tuesday 21 Oct 2014 (Local Time) from KIOB Reporting Station
Haze Haze  
Wind Chill: 54°   Ceiling: 3000
Heat Index: 54°   Visibility: 5mi
Dew Point: 43°   Wind: 8mph
Humidity: 67%   Direction: 330°NNW
Pressure: 30.05"   Gusts: NA
Location:  37.8453°N, 83.9222°W
Report Text: KIOB 211655Z AUTO 33007KT 5SM HZ BKN030 BKN042 OVC050 12/06 A3005 RMK AO2
Loading
Personal Weather Stations






























Interactive Weather Map
Tropical Storm Tracking
New forecast layout! Learn more

10-Day Weather Forecast

Advertisements
Track Severe Weather on mobile